Terminal Aerodrome Forecast
Issued by NWS

Home | Current Version | Previous Version | Text Only | Print | Product List | Glossary On
Versions: 1 2 3 4 5 6 7 8 9 10 11 12
053
FTUS45 KPIH 112331
TAFSUN
TAF
KSUN 112331Z 1200/1224 13007KT P6SM BKN080 BKN130
     FM120600 31008KT P6SM SCT130 BKN150
     FM121800 13007KT P6SM FEW150
      AMD LTD TO CLD VIS AND WIND 1206/1214=

USA.gov is the U.S. government's official web portal to all federal, state and local government web resources and services.